sensor_id;sensor_type;location;lat;lon;timestamp;P1;durP1;ratioP1;P2;durP2;ratioP2
37483;SDS011;23337;52.212;9.926;2023-11-18T00:01:15;16.90;;;13.73;;
37483;SDS011;23337;52.212;9.926;2023-11-18T00:03:41;15.20;;;13.53;;
37483;SDS011;23337;52.212;9.926;2023-11-18T00:06:07;18.50;;;14.13;;
37483;SDS011;23337;52.212;9.926;2023-11-18T00:08:33;15.87;;;13.63;;
37483;SDS011;23337;52.212;9.926;2023-11-18T00:10:59;14.57;;;13.13;;
37483;SDS011;23337;52.212;9.926;2023-11-18T00:13:25;18.17;;;14.00;;
37483;SDS011;23337;52.212;9.926;2023-11-18T00:15:54;18.13;;;14.23;;
37483;SDS011;23337;52.212;9.926;2023-11-18T00:18:20;14.67;;;13.20;;
37483;SDS011;23337;52.212;9.926;2023-11-18T00:20:46;21.03;;;15.13;;
37483;SDS011;23337;52.212;9.926;2023-11-18T00:23:12;20.00;;;15.93;;
37483;SDS011;23337;52.212;9.926;2023-11-18T00:25:38;20.17;;;16.90;;
37483;SDS011;23337;52.212;9.926;2023-11-18T00:28:05;20.00;;;16.20;;
37483;SDS011;23337;52.212;9.926;2023-11-18T00:30:34;17.93;;;15.37;;
37483;SDS011;23337;52.212;9.926;2023-11-18T00:33:00;19.60;;;15.30;;
37483;SDS011;23337;52.212;9.926;2023-11-18T00:35:26;15.70;;;14.03;;
37483;SDS011;23337;52.212;9.926;2023-11-18T00:37:52;19.93;;;16.10;;
37483;SDS011;23337;52.212;9.926;2023-11-18T00:40:18;18.23;;;15.00;;
37483;SDS011;23337;52.212;9.926;2023-11-18T00:42:44;20.80;;;16.07;;
37483;SDS011;23337;52.212;9.926;2023-11-18T00:45:10;18.23;;;16.27;;
37483;SDS011;23337;52.212;9.926;2023-11-18T00:47:38;18.23;;;16.07;;
37483;SDS011;23337;52.212;9.926;2023-11-18T00:50:04;21.50;;;16.67;;
37483;SDS011;23337;52.212;9.926;2023-11-18T00:52:33;20.93;;;16.37;;
37483;SDS011;23337;52.212;9.926;2023-11-18T00:54:59;19.03;;;16.07;;
37483;SDS011;23337;52.212;9.926;2023-11-18T00:57:25;21.20;;;16.67;;
37483;SDS011;23337;52.212;9.926;2023-11-18T00:59:51;19.07;;;15.10;;
37483;SDS011;23337;52.212;9.926;2023-11-18T01:02:17;17.33;;;15.53;;
37483;SDS011;23337;52.212;9.926;2023-11-18T01:04:44;21.17;;;16.03;;
37483;SDS011;23337;52.212;9.926;2023-11-18T01:07:13;19.43;;;16.67;;
37483;SDS011;23337;52.212;9.926;2023-11-18T01:09:39;21.27;;;16.13;;
37483;SDS011;23337;52.212;9.926;2023-11-18T01:12:05;19.10;;;16.80;;
37483;SDS011;23337;52.212;9.926;2023-11-18T01:14:34;24.33;;;18.07;;
37483;SDS011;23337;52.212;9.926;2023-11-18T01:17:00;20.33;;;17.10;;
37483;SDS011;23337;52.212;9.926;2023-11-18T01:19:27;21.53;;;17.97;;
37483;SDS011;23337;52.212;9.926;2023-11-18T01:21:53;22.63;;;17.37;;
37483;SDS011;23337;52.212;9.926;2023-11-18T01:24:20;20.90;;;17.73;;
37483;SDS011;23337;52.212;9.926;2023-11-18T01:26:46;23.37;;;18.67;;
37483;SDS011;23337;52.212;9.926;2023-11-18T01:29:12;20.23;;;18.03;;
37483;SDS011;23337;52.212;9.926;2023-11-18T01:31:38;20.83;;;18.57;;
37483;SDS011;23337;52.212;9.926;2023-11-18T01:34:06;21.67;;;17.17;;
37483;SDS011;23337;52.212;9.926;2023-11-18T01:36:32;24.10;;;18.87;;
37483;SDS011;23337;52.212;9.926;2023-11-18T01:38:59;20.93;;;18.23;;
37483;SDS011;23337;52.212;9.926;2023-11-18T01:41:25;22.03;;;17.80;;
37483;SDS011;23337;52.212;9.926;2023-11-18T01:43:51;22.93;;;18.83;;
37483;SDS011;23337;52.212;9.926;2023-11-18T01:46:18;21.57;;;18.10;;
37483;SDS011;23337;52.212;9.926;2023-11-18T01:48:46;19.83;;;17.77;;
37483;SDS011;23337;52.212;9.926;2023-11-18T01:51:12;20.40;;;18.30;;
37483;SDS011;23337;52.212;9.926;2023-11-18T01:53:39;21.90;;;18.40;;
37483;SDS011;23337;52.212;9.926;2023-11-18T01:56:06;24.73;;;19.73;;
37483;SDS011;23337;52.212;9.926;2023-11-18T01:58:33;19.57;;;17.57;;
37483;SDS011;23337;52.212;9.926;2023-11-18T02:01:00;21.63;;;18.90;;
37483;SDS011;23337;52.212;9.926;2023-11-18T02:03:26;23.80;;;18.27;;
37483;SDS011;23337;52.212;9.926;2023-11-18T02:05:53;21.47;;;17.30;;
37483;SDS011;23337;52.212;9.926;2023-11-18T02:08:19;19.93;;;17.53;;
37483;SDS011;23337;52.212;9.926;2023-11-18T02:10:54;24.03;;;19.20;;
37483;SDS011;23337;52.212;9.926;2023-11-18T02:15:54;22.63;;;18.57;;
37483;SDS011;23337;52.212;9.926;2023-11-18T02:18:22;20.37;;;18.23;;
37483;SDS011;23337;52.212;9.926;2023-11-18T02:20:49;20.57;;;18.20;;
37483;SDS011;23337;52.212;9.926;2023-11-18T02:23:17;23.93;;;20.33;;
37483;SDS011;23337;52.212;9.926;2023-11-18T02:25:46;22.80;;;19.27;;
37483;SDS011;23337;52.212;9.926;2023-11-18T02:28:12;21.50;;;19.40;;
37483;SDS011;23337;52.212;9.926;2023-11-18T02:30:39;21.87;;;19.27;;
37483;SDS011;23337;52.212;9.926;2023-11-18T02:33:17;25.07;;;20.37;;
37483;SDS011;23337;52.212;9.926;2023-11-18T02:35:53;21.17;;;18.93;;
37483;SDS011;23337;52.212;9.926;2023-11-18T02:38:26;26.07;;;19.97;;
37483;SDS011;23337;52.212;9.926;2023-11-18T02:40:54;24.47;;;20.97;;
37483;SDS011;23337;52.212;9.926;2023-11-18T02:43:21;22.70;;;19.73;;
37483;SDS011;23337;52.212;9.926;2023-11-18T02:45:49;24.53;;;21.30;;
37483;SDS011;23337;52.212;9.926;2023-11-18T02:48:15;28.97;;;21.43;;
37483;SDS011;23337;52.212;9.926;2023-11-18T02:50:43;22.90;;;19.87;;
37483;SDS011;23337;52.212;9.926;2023-11-18T02:53:09;24.63;;;20.77;;
37483;SDS011;23337;52.212;9.926;2023-11-18T02:55:35;27.70;;;21.27;;
37483;SDS011;23337;52.212;9.926;2023-11-18T02:58:01;27.33;;;19.90;;
37483;SDS011;23337;52.212;9.926;2023-11-18T03:00:27;23.63;;;20.60;;
37483;SDS011;23337;52.212;9.926;2023-11-18T03:02:53;26.53;;;20.33;;
37483;SDS011;23337;52.212;9.926;2023-11-18T03:05:20;27.63;;;20.80;;
37483;SDS011;23337;52.212;9.926;2023-11-18T03:07:49;24.90;;;19.50;;
37483;SDS011;23337;52.212;9.926;2023-11-18T03:10:16;28.73;;;20.70;;
37483;SDS011;23337;52.212;9.926;2023-11-18T03:12:49;25.77;;;20.33;;
37483;SDS011;23337;52.212;9.926;2023-11-18T03:15:15;27.43;;;20.57;;
37483;SDS011;23337;52.212;9.926;2023-11-18T03:17:43;25.80;;;20.30;;
37483;SDS011;23337;52.212;9.926;2023-11-18T03:20:09;28.83;;;20.47;;
37483;SDS011;23337;52.212;9.926;2023-11-18T03:22:36;22.90;;;19.97;;
37483;SDS011;23337;52.212;9.926;2023-11-18T03:25:02;28.13;;;21.17;;
37483;SDS011;23337;52.212;9.926;2023-11-18T03:27:30;23.73;;;20.17;;
37483;SDS011;23337;52.212;9.926;2023-11-18T03:29:56;25.40;;;21.33;;
37483;SDS011;23337;52.212;9.926;2023-11-18T03:32:22;27.87;;;21.23;;
37483;SDS011;23337;52.212;9.926;2023-11-18T03:34:48;26.63;;;19.87;;
37483;SDS011;23337;52.212;9.926;2023-11-18T03:37:14;25.83;;;20.27;;
37483;SDS011;23337;52.212;9.926;2023-11-18T03:39:40;29.33;;;20.80;;
37483;SDS011;23337;52.212;9.926;2023-11-18T03:42:06;26.90;;;22.30;;
37483;SDS011;23337;52.212;9.926;2023-11-18T03:44:33;30.53;;;21.27;;
37483;SDS011;23337;52.212;9.926;2023-11-18T03:46:59;27.33;;;20.43;;
37483;SDS011;23337;52.212;9.926;2023-11-18T03:49:27;30.37;;;22.20;;
37483;SDS011;23337;52.212;9.926;2023-11-18T03:51:53;28.00;;;21.40;;
37483;SDS011;23337;52.212;9.926;2023-11-18T03:54:19;27.03;;;20.73;;
37483;SDS011;23337;52.212;9.926;2023-11-18T03:56:45;26.53;;;21.77;;
37483;SDS011;23337;52.212;9.926;2023-11-18T03:59:11;27.73;;;20.17;;
37483;SDS011;23337;52.212;9.926;2023-11-18T04:01:37;29.60;;;21.50;;
37483;SDS011;23337;52.212;9.926;2023-11-18T04:04:03;32.33;;;22.00;;
37483;SDS011;23337;52.212;9.926;2023-11-18T04:06:29;24.47;;;20.80;;
37483;SDS011;23337;52.212;9.926;2023-11-18T04:08:55;31.73;;;20.50;;
37483;SDS011;23337;52.212;9.926;2023-11-18T04:11:21;28.90;;;20.17;;
37483;SDS011;23337;52.212;9.926;2023-11-18T04:13:47;26.83;;;20.70;;
37483;SDS011;23337;52.212;9.926;2023-11-18T04:16:13;28.00;;;21.40;;
37483;SDS011;23337;52.212;9.926;2023-11-18T04:18:43;28.20;;;20.83;;
37483;SDS011;23337;52.212;9.926;2023-11-18T04:21:10;25.23;;;20.30;;
37483;SDS011;23337;52.212;9.926;2023-11-18T04:23:36;28.73;;;22.13;;
37483;SDS011;23337;52.212;9.926;2023-11-18T04:26:03;30.40;;;21.63;;
37483;SDS011;23337;52.212;9.926;2023-11-18T04:28:29;32.93;;;22.47;;
37483;SDS011;23337;52.212;9.926;2023-11-18T04:30:55;28.00;;;20.97;;
37483;SDS011;23337;52.212;9.926;2023-11-18T04:33:21;28.07;;;21.17;;
37483;SDS011;23337;52.212;9.926;2023-11-18T04:35:49;23.03;;;18.87;;
37483;SDS011;23337;52.212;9.926;2023-11-18T04:38:16;27.90;;;20.60;;
37483;SDS011;23337;52.212;9.926;2023-11-18T04:40:42;23.83;;;18.77;;
37483;SDS011;23337;52.212;9.926;2023-11-18T04:43:09;24.43;;;19.47;;
37483;SDS011;23337;52.212;9.926;2023-11-18T04:45:36;26.17;;;20.03;;
37483;SDS011;23337;52.212;9.926;2023-11-18T04:48:02;24.53;;;19.30;;
37483;SDS011;23337;52.212;9.926;2023-11-18T04:50:29;27.57;;;21.00;;
37483;SDS011;23337;52.212;9.926;2023-11-18T04:52:55;30.57;;;21.63;;
37483;SDS011;23337;52.212;9.926;2023-11-18T04:55:21;29.40;;;20.87;;
37483;SDS011;23337;52.212;9.926;2023-11-18T04:57:47;32.53;;;22.20;;
37483;SDS011;23337;52.212;9.926;2023-11-18T05:00:13;33.00;;;21.63;;
37483;SDS011;23337;52.212;9.926;2023-11-18T05:02:42;29.23;;;21.90;;
37483;SDS011;23337;52.212;9.926;2023-11-18T05:05:09;32.57;;;21.50;;
37483;SDS011;23337;52.212;9.926;2023-11-18T05:07:36;30.47;;;21.03;;
37483;SDS011;23337;52.212;9.926;2023-11-18T05:10:03;29.40;;;21.53;;
37483;SDS011;23337;52.212;9.926;2023-11-18T05:12:29;34.13;;;23.00;;
37483;SDS011;23337;52.212;9.926;2023-11-18T05:14:55;33.27;;;22.77;;
37483;SDS011;23337;52.212;9.926;2023-11-18T05:17:22;33.73;;;22.07;;
37483;SDS011;23337;52.212;9.926;2023-11-18T05:19:48;31.67;;;21.97;;
37483;SDS011;23337;52.212;9.926;2023-11-18T05:22:14;34.03;;;23.50;;
37483;SDS011;23337;52.212;9.926;2023-11-18T05:24:40;33.20;;;21.83;;
37483;SDS011;23337;52.212;9.926;2023-11-18T05:27:06;32.50;;;22.03;;
37483;SDS011;23337;52.212;9.926;2023-11-18T05:29:32;36.53;;;22.97;;
37483;SDS011;23337;52.212;9.926;2023-11-18T05:31:59;35.13;;;23.97;;
37483;SDS011;23337;52.212;9.926;2023-11-18T05:34:25;34.73;;;23.07;;
37483;SDS011;23337;52.212;9.926;2023-11-18T05:36:50;39.00;;;23.40;;
37483;SDS011;23337;52.212;9.926;2023-11-18T05:39:22;37.43;;;23.57;;
37483;SDS011;23337;52.212;9.926;2023-11-18T05:41:49;34.23;;;23.03;;
37483;SDS011;23337;52.212;9.926;2023-11-18T05:44:16;32.57;;;23.20;;
37483;SDS011;23337;52.212;9.926;2023-11-18T05:46:44;34.80;;;21.63;;
37483;SDS011;23337;52.212;9.926;2023-11-18T05:49:11;37.33;;;24.47;;
37483;SDS011;23337;52.212;9.926;2023-11-18T05:51:38;38.77;;;23.90;;
37483;SDS011;23337;52.212;9.926;2023-11-18T05:54:05;37.73;;;24.43;;
37483;SDS011;23337;52.212;9.926;2023-11-18T05:56:32;34.57;;;23.77;;
37483;SDS011;23337;52.212;9.926;2023-11-18T05:58:58;37.57;;;23.40;;
37483;SDS011;23337;52.212;9.926;2023-11-18T06:01:24;38.23;;;23.70;;
37483;SDS011;23337;52.212;9.926;2023-11-18T06:03:53;38.77;;;23.97;;
37483;SDS011;23337;52.212;9.926;2023-11-18T06:06:19;39.63;;;24.37;;
37483;SDS011;23337;52.212;9.926;2023-11-18T06:08:46;36.97;;;23.40;;
37483;SDS011;23337;52.212;9.926;2023-11-18T06:11:13;40.97;;;23.50;;
37483;SDS011;23337;52.212;9.926;2023-11-18T06:13:49;39.13;;;24.17;;
37483;SDS011;23337;52.212;9.926;2023-11-18T06:16:19;35.47;;;22.93;;
37483;SDS011;23337;52.212;9.926;2023-11-18T06:18:46;36.63;;;24.10;;
37483;SDS011;23337;52.212;9.926;2023-11-18T06:21:13;41.03;;;23.87;;
37483;SDS011;23337;52.212;9.926;2023-11-18T06:23:40;33.17;;;21.87;;
37483;SDS011;23337;52.212;9.926;2023-11-18T06:26:06;36.83;;;23.27;;
37483;SDS011;23337;52.212;9.926;2023-11-18T06:28:32;37.23;;;23.77;;
37483;SDS011;23337;52.212;9.926;2023-11-18T06:31:00;36.20;;;23.53;;
37483;SDS011;23337;52.212;9.926;2023-11-18T06:33:26;39.10;;;24.43;;
37483;SDS011;23337;52.212;9.926;2023-11-18T06:35:55;35.27;;;22.03;;
37483;SDS011;23337;52.212;9.926;2023-11-18T06:38:21;36.87;;;22.33;;
37483;SDS011;23337;52.212;9.926;2023-11-18T06:40:47;35.83;;;22.53;;
37483;SDS011;23337;52.212;9.926;2023-11-18T06:43:18;39.00;;;23.77;;
37483;SDS011;23337;52.212;9.926;2023-11-18T06:45:44;36.73;;;23.67;;
37483;SDS011;23337;52.212;9.926;2023-11-18T06:48:11;36.03;;;22.47;;
37483;SDS011;23337;52.212;9.926;2023-11-18T06:50:39;36.30;;;21.70;;
37483;SDS011;23337;52.212;9.926;2023-11-18T06:53:08;36.53;;;21.67;;
37483;SDS011;23337;52.212;9.926;2023-11-18T06:55:35;34.90;;;22.13;;
37483;SDS011;23337;52.212;9.926;2023-11-18T06:58:01;37.27;;;21.13;;
37483;SDS011;23337;52.212;9.926;2023-11-18T07:00:27;39.53;;;23.60;;
37483;SDS011;23337;52.212;9.926;2023-11-18T07:02:54;33.30;;;22.47;;
37483;SDS011;23337;52.212;9.926;2023-11-18T07:05:20;30.87;;;20.57;;
37483;SDS011;23337;52.212;9.926;2023-11-18T07:07:49;31.40;;;20.37;;
37483;SDS011;23337;52.212;9.926;2023-11-18T07:10:14;30.57;;;19.83;;
37483;SDS011;23337;52.212;9.926;2023-11-18T07:12:43;32.87;;;21.30;;
37483;SDS011;23337;52.212;9.926;2023-11-18T07:15:09;38.80;;;23.30;;
37483;SDS011;23337;52.212;9.926;2023-11-18T07:17:35;35.43;;;22.67;;
37483;SDS011;23337;52.212;9.926;2023-11-18T07:20:01;32.93;;;21.43;;
37483;SDS011;23337;52.212;9.926;2023-11-18T07:22:27;35.67;;;21.53;;
37483;SDS011;23337;52.212;9.926;2023-11-18T07:24:54;31.93;;;21.77;;
37483;SDS011;23337;52.212;9.926;2023-11-18T07:27:20;32.00;;;21.00;;
37483;SDS011;23337;52.212;9.926;2023-11-18T07:29:46;35.30;;;22.30;;
37483;SDS011;23337;52.212;9.926;2023-11-18T07:32:12;32.33;;;20.93;;
37483;SDS011;23337;52.212;9.926;2023-11-18T07:34:38;35.17;;;21.90;;
37483;SDS011;23337;52.212;9.926;2023-11-18T07:37:06;34.50;;;21.83;;
37483;SDS011;23337;52.212;9.926;2023-11-18T07:39:33;33.73;;;21.83;;
37483;SDS011;23337;52.212;9.926;2023-11-18T07:42:13;34.00;;;23.17;;
37483;SDS011;23337;52.212;9.926;2023-11-18T07:44:40;33.83;;;21.70;;
37483;SDS011;23337;52.212;9.926;2023-11-18T07:47:06;35.23;;;22.73;;
37483;SDS011;23337;52.212;9.926;2023-11-18T07:49:33;36.27;;;22.60;;
37483;SDS011;23337;52.212;9.926;2023-11-18T07:52:00;34.53;;;22.37;;
37483;SDS011;23337;52.212;9.926;2023-11-18T07:54:26;35.43;;;23.13;;
37483;SDS011;23337;52.212;9.926;2023-11-18T07:56:52;38.50;;;23.37;;
37483;SDS011;23337;52.212;9.926;2023-11-18T07:59:19;34.60;;;22.30;;
37483;SDS011;23337;52.212;9.926;2023-11-18T08:01:45;37.07;;;21.73;;
37483;SDS011;23337;52.212;9.926;2023-11-18T08:04:11;38.30;;;23.07;;
37483;SDS011;23337;52.212;9.926;2023-11-18T08:06:39;38.60;;;22.87;;
37483;SDS011;23337;52.212;9.926;2023-11-18T08:09:05;40.77;;;23.73;;
37483;SDS011;23337;52.212;9.926;2023-11-18T08:11:47;34.17;;;22.67;;
37483;SDS011;23337;52.212;9.926;2023-11-18T08:14:14;33.93;;;21.20;;
37483;SDS011;23337;52.212;9.926;2023-11-18T08:16:40;33.87;;;21.93;;
37483;SDS011;23337;52.212;9.926;2023-11-18T08:19:06;34.57;;;21.70;;
37483;SDS011;23337;52.212;9.926;2023-11-18T08:21:33;36.67;;;22.70;;
37483;SDS011;23337;52.212;9.926;2023-11-18T08:23:59;42.80;;;23.47;;
37483;SDS011;23337;52.212;9.926;2023-11-18T08:26:26;37.00;;;23.67;;
37483;SDS011;23337;52.212;9.926;2023-11-18T08:28:53;42.60;;;23.80;;
37483;SDS011;23337;52.212;9.926;2023-11-18T08:31:19;38.70;;;23.77;;
37483;SDS011;23337;52.212;9.926;2023-11-18T08:33:46;35.27;;;23.50;;
37483;SDS011;23337;52.212;9.926;2023-11-18T08:36:12;43.47;;;23.33;;
37483;SDS011;23337;52.212;9.926;2023-11-18T08:38:38;41.07;;;23.60;;
37483;SDS011;23337;52.212;9.926;2023-11-18T08:41:05;44.90;;;24.33;;
37483;SDS011;23337;52.212;9.926;2023-11-18T08:43:34;45.47;;;23.83;;
37483;SDS011;23337;52.212;9.926;2023-11-18T08:46:00;44.13;;;25.20;;
37483;SDS011;23337;52.212;9.926;2023-11-18T08:48:26;45.77;;;25.37;;
37483;SDS011;23337;52.212;9.926;2023-11-18T08:50:53;43.23;;;23.07;;
37483;SDS011;23337;52.212;9.926;2023-11-18T08:53:19;43.47;;;23.67;;
37483;SDS011;23337;52.212;9.926;2023-11-18T08:55:50;42.70;;;22.33;;
37483;SDS011;23337;52.212;9.926;2023-11-18T08:58:19;39.13;;;23.00;;
37483;SDS011;23337;52.212;9.926;2023-11-18T09:00:47;43.20;;;22.03;;
37483;SDS011;23337;52.212;9.926;2023-11-18T09:03:20;34.90;;;21.73;;
37483;SDS011;23337;52.212;9.926;2023-11-18T09:05:59;39.40;;;21.73;;
37483;SDS011;23337;52.212;9.926;2023-11-18T09:08:30;37.27;;;21.93;;
37483;SDS011;23337;52.212;9.926;2023-11-18T09:10:59;35.47;;;22.23;;
37483;SDS011;23337;52.212;9.926;2023-11-18T09:13:26;31.67;;;20.00;;
37483;SDS011;23337;52.212;9.926;2023-11-18T09:16:15;35.90;;;19.87;;
37483;SDS011;23337;52.212;9.926;2023-11-18T09:18:41;34.30;;;20.27;;
37483;SDS011;23337;52.212;9.926;2023-11-18T09:21:10;41.17;;;20.97;;
37483;SDS011;23337;52.212;9.926;2023-11-18T09:23:39;32.93;;;18.47;;
37483;SDS011;23337;52.212;9.926;2023-11-18T09:26:06;32.97;;;19.27;;
37483;SDS011;23337;52.212;9.926;2023-11-18T09:28:35;34.77;;;19.23;;
37483;SDS011;23337;52.212;9.926;2023-11-18T09:31:01;33.03;;;18.27;;
37483;SDS011;23337;52.212;9.926;2023-11-18T09:33:29;37.23;;;19.20;;
37483;SDS011;23337;52.212;9.926;2023-11-18T09:38:28;32.00;;;18.20;;
37483;SDS011;23337;52.212;9.926;2023-11-18T09:40:54;37.90;;;21.30;;
37483;SDS011;23337;52.212;9.926;2023-11-18T09:43:20;28.67;;;18.13;;
37483;SDS011;23337;52.212;9.926;2023-11-18T09:46:10;31.83;;;17.00;;
37483;SDS011;23337;52.212;9.926;2023-11-18T09:48:48;30.07;;;18.00;;
37483;SDS011;23337;52.212;9.926;2023-11-18T09:51:21;29.90;;;16.43;;
37483;SDS011;23337;52.212;9.926;2023-11-18T09:53:51;30.43;;;17.23;;
37483;SDS011;23337;52.212;9.926;2023-11-18T09:59:16;22.43;;;13.70;;
37483;SDS011;23337;52.212;9.926;2023-11-18T10:01:44;22.27;;;13.10;;
37483;SDS011;23337;52.212;9.926;2023-11-18T10:04:17;24.90;;;12.97;;
37483;SDS011;23337;52.212;9.926;2023-11-18T10:06:43;22.63;;;12.43;;
37483;SDS011;23337;52.212;9.926;2023-11-18T10:09:10;22.52;;;13.55;;
37483;SDS011;23337;52.212;9.926;2023-11-18T10:11:44;18.70;;;11.67;;
37483;SDS011;23337;52.212;9.926;2023-11-18T10:14:13;16.43;;;9.27;;
37483;SDS011;23337;52.212;9.926;2023-11-18T10:16:40;13.60;;;9.47;;
37483;SDS011;23337;52.212;9.926;2023-11-18T10:19:06;13.90;;;8.77;;
37483;SDS011;23337;52.212;9.926;2023-11-18T10:21:34;12.17;;;8.17;;
37483;SDS011;23337;52.212;9.926;2023-11-18T10:24:04;15.57;;;9.30;;
37483;SDS011;23337;52.212;9.926;2023-11-18T10:26:35;11.20;;;7.43;;
37483;SDS011;23337;52.212;9.926;2023-11-18T10:29:03;12.00;;;7.83;;
37483;SDS011;23337;52.212;9.926;2023-11-18T10:31:32;11.93;;;7.23;;
37483;SDS011;23337;52.212;9.926;2023-11-18T10:34:00;15.27;;;8.57;;
37483;SDS011;23337;52.212;9.926;2023-11-18T10:36:28;14.33;;;8.20;;
37483;SDS011;23337;52.212;9.926;2023-11-18T10:38:58;15.97;;;7.93;;
37483;SDS011;23337;52.212;9.926;2023-11-18T10:41:25;10.30;;;7.20;;
37483;SDS011;23337;52.212;9.926;2023-11-18T10:44:06;9.63;;;6.53;;
37483;SDS011;23337;52.212;9.926;2023-11-18T10:46:38;10.97;;;6.40;;
37483;SDS011;23337;52.212;9.926;2023-11-18T10:49:05;9.70;;;6.27;;
37483;SDS011;23337;52.212;9.926;2023-11-18T10:51:35;10.50;;;7.10;;
37483;SDS011;23337;52.212;9.926;2023-11-18T10:54:04;11.60;;;6.33;;
37483;SDS011;23337;52.212;9.926;2023-11-18T10:56:40;10.53;;;6.93;;
37483;SDS011;23337;52.212;9.926;2023-11-18T10:59:11;11.67;;;7.10;;
37483;SDS011;23337;52.212;9.926;2023-11-18T11:01:41;8.03;;;6.37;;
37483;SDS011;23337;52.212;9.926;2023-11-18T11:04:10;9.30;;;6.57;;
37483;SDS011;23337;52.212;9.926;2023-11-18T11:06:43;9.47;;;6.20;;
37483;SDS011;23337;52.212;9.926;2023-11-18T11:09:21;8.90;;;6.47;;
37483;SDS011;23337;52.212;9.926;2023-11-18T11:11:58;9.00;;;6.33;;
37483;SDS011;23337;52.212;9.926;2023-11-18T11:14:34;9.47;;;6.73;;
37483;SDS011;23337;52.212;9.926;2023-11-18T11:17:12;11.60;;;6.03;;
37483;SDS011;23337;52.212;9.926;2023-11-18T11:19:50;9.47;;;5.93;;
37483;SDS011;23337;52.212;9.926;2023-11-18T11:22:25;9.80;;;6.23;;
37483;SDS011;23337;52.212;9.926;2023-11-18T11:25:14;8.83;;;5.90;;
37483;SDS011;23337;52.212;9.926;2023-11-18T11:30:28;8.23;;;6.30;;
37483;SDS011;23337;52.212;9.926;2023-11-18T11:33:03;7.00;;;5.00;;
37483;SDS011;23337;52.212;9.926;2023-11-18T11:35:33;8.63;;;5.50;;
37483;SDS011;23337;52.212;9.926;2023-11-18T11:38:03;7.87;;;5.80;;
37483;SDS011;23337;52.212;9.926;2023-11-18T11:40:35;8.20;;;6.23;;
37483;SDS011;23337;52.212;9.926;2023-11-18T11:43:04;8.37;;;5.30;;
37483;SDS011;23337;52.212;9.926;2023-11-18T11:45:34;6.70;;;5.10;;
37483;SDS011;23337;52.212;9.926;2023-11-18T11:48:01;7.77;;;6.27;;
37483;SDS011;23337;52.212;9.926;2023-11-18T11:50:47;8.83;;;6.17;;
37483;SDS011;23337;52.212;9.926;2023-11-18T11:53:16;9.90;;;6.20;;
37483;SDS011;23337;52.212;9.926;2023-11-18T11:55:46;9.83;;;5.57;;
37483;SDS011;23337;52.212;9.926;2023-11-18T11:58:29;9.73;;;5.43;;
37483;SDS011;23337;52.212;9.926;2023-11-18T12:00:59;7.50;;;5.57;;
37483;SDS011;23337;52.212;9.926;2023-11-18T12:03:26;9.47;;;5.77;;
37483;SDS011;23337;52.212;9.926;2023-11-18T12:06:01;10.27;;;6.63;;
37483;SDS011;23337;52.212;9.926;2023-11-18T12:08:32;8.37;;;6.53;;
37483;SDS011;23337;52.212;9.926;2023-11-18T12:10:58;8.67;;;5.57;;
37483;SDS011;23337;52.212;9.926;2023-11-18T12:13:26;10.40;;;7.30;;
37483;SDS011;23337;52.212;9.926;2023-11-18T12:15:53;9.40;;;5.37;;
37483;SDS011;23337;52.212;9.926;2023-11-18T12:18:19;8.57;;;5.77;;
37483;SDS011;23337;52.212;9.926;2023-11-18T12:20:46;7.63;;;5.80;;
37483;SDS011;23337;52.212;9.926;2023-11-18T12:23:13;7.67;;;5.40;;
37483;SDS011;23337;52.212;9.926;2023-11-18T12:25:42;9.27;;;6.80;;
37483;SDS011;23337;52.212;9.926;2023-11-18T12:28:10;8.07;;;6.27;;
37483;SDS011;23337;52.212;9.926;2023-11-18T12:30:39;6.67;;;5.47;;
37483;SDS011;23337;52.212;9.926;2023-11-18T12:33:16;8.57;;;6.40;;
37483;SDS011;23337;52.212;9.926;2023-11-18T12:38:26;8.10;;;6.57;;
37483;SDS011;23337;52.212;9.926;2023-11-18T12:40:55;12.57;;;6.10;;
37483;SDS011;23337;52.212;9.926;2023-11-18T12:46:12;7.40;;;5.50;;
37483;SDS011;23337;52.212;9.926;2023-11-18T12:48:44;7.13;;;5.57;;
37483;SDS011;23337;52.212;9.926;2023-11-18T12:51:13;6.97;;;4.97;;
37483;SDS011;23337;52.212;9.926;2023-11-18T12:53:47;8.90;;;5.23;;
37483;SDS011;23337;52.212;9.926;2023-11-18T12:56:19;6.77;;;6.07;;
37483;SDS011;23337;52.212;9.926;2023-11-18T12:58:45;7.00;;;5.57;;
37483;SDS011;23337;52.212;9.926;2023-11-18T13:01:12;8.63;;;5.47;;
37483;SDS011;23337;52.212;9.926;2023-11-18T13:03:39;8.47;;;6.00;;
37483;SDS011;23337;52.212;9.926;2023-11-18T13:06:09;6.63;;;5.77;;
37483;SDS011;23337;52.212;9.926;2023-11-18T13:08:37;7.20;;;5.37;;
37483;SDS011;23337;52.212;9.926;2023-11-18T13:11:03;6.77;;;5.53;;
37483;SDS011;23337;52.212;9.926;2023-11-18T13:13:33;7.70;;;5.90;;
37483;SDS011;23337;52.212;9.926;2023-11-18T13:15:59;6.63;;;5.40;;
37483;SDS011;23337;52.212;9.926;2023-11-18T13:18:26;7.67;;;5.63;;
37483;SDS011;23337;52.212;9.926;2023-11-18T13:20:54;8.27;;;5.88;;
37483;SDS011;23337;52.212;9.926;2023-11-18T13:23:20;8.23;;;5.87;;
37483;SDS011;23337;52.212;9.926;2023-11-18T13:25:47;7.83;;;5.50;;
37483;SDS011;23337;52.212;9.926;2023-11-18T13:28:13;7.63;;;4.93;;
37483;SDS011;23337;52.212;9.926;2023-11-18T13:30:40;5.77;;;4.67;;
37483;SDS011;23337;52.212;9.926;2023-11-18T13:33:07;5.13;;;4.23;;
37483;SDS011;23337;52.212;9.926;2023-11-18T13:35:33;6.17;;;5.50;;
37483;SDS011;23337;52.212;9.926;2023-11-18T13:38:01;6.30;;;4.67;;
37483;SDS011;23337;52.212;9.926;2023-11-18T13:40:41;5.77;;;5.07;;
37483;SDS011;23337;52.212;9.926;2023-11-18T13:43:07;5.33;;;4.60;;
37483;SDS011;23337;52.212;9.926;2023-11-18T13:45:33;6.10;;;4.87;;
37483;SDS011;23337;52.212;9.926;2023-11-18T13:47:59;5.90;;;4.23;;
37483;SDS011;23337;52.212;9.926;2023-11-18T13:50:26;6.00;;;4.80;;
37483;SDS011;23337;52.212;9.926;2023-11-18T13:52:53;6.20;;;4.73;;
37483;SDS011;23337;52.212;9.926;2023-11-18T13:55:19;7.07;;;5.50;;
37483;SDS011;23337;52.212;9.926;2023-11-18T13:57:56;6.37;;;5.47;;
37483;SDS011;23337;52.212;9.926;2023-11-18T14:00:25;7.77;;;5.37;;
37483;SDS011;23337;52.212;9.926;2023-11-18T14:02:55;9.77;;;5.20;;
37483;SDS011;23337;52.212;9.926;2023-11-18T14:05:21;7.27;;;5.10;;
37483;SDS011;23337;52.212;9.926;2023-11-18T14:07:49;6.97;;;4.90;;
37483;SDS011;23337;52.212;9.926;2023-11-18T14:10:15;11.23;;;4.90;;
37483;SDS011;23337;52.212;9.926;2023-11-18T14:13:05;6.10;;;4.70;;
37483;SDS011;23337;52.212;9.926;2023-11-18T14:15:40;6.60;;;5.07;;
37483;SDS011;23337;52.212;9.926;2023-11-18T14:18:08;4.93;;;4.43;;
37483;SDS011;23337;52.212;9.926;2023-11-18T14:20:35;6.03;;;5.23;;
37483;SDS011;23337;52.212;9.926;2023-11-18T14:23:02;5.47;;;4.97;;
37483;SDS011;23337;52.212;9.926;2023-11-18T14:25:33;7.37;;;5.30;;
37483;SDS011;23337;52.212;9.926;2023-11-18T14:27:59;5.97;;;4.97;;
37483;SDS011;23337;52.212;9.926;2023-11-18T14:30:27;8.17;;;5.47;;
37483;SDS011;23337;52.212;9.926;2023-11-18T14:32:53;5.97;;;5.30;;
37483;SDS011;23337;52.212;9.926;2023-11-18T14:35:19;10.10;;;5.87;;
37483;SDS011;23337;52.212;9.926;2023-11-18T14:37:45;7.33;;;5.30;;
37483;SDS011;23337;52.212;9.926;2023-11-18T14:40:12;8.10;;;6.20;;
37483;SDS011;23337;52.212;9.926;2023-11-18T14:42:39;7.03;;;5.70;;
37483;SDS011;23337;52.212;9.926;2023-11-18T14:45:05;7.33;;;5.20;;
37483;SDS011;23337;52.212;9.926;2023-11-18T14:47:33;8.93;;;5.73;;
37483;SDS011;23337;52.212;9.926;2023-11-18T14:49:59;8.33;;;6.03;;